createdAt,value
2022-08-05T00:00:23.726Z,5.10
2022-08-05T00:02:55.364Z,3.70
2022-08-05T00:05:27.485Z,2.83
2022-08-05T00:08:32.512Z,2.47
2022-08-05T00:11:01.346Z,2.00
2022-08-05T00:13:38.775Z,2.92
2022-08-05T00:16:12.523Z,3.42
2022-08-05T00:18:45.573Z,2.65
2022-08-05T00:21:14.809Z,2.42
2022-08-05T00:23:53.295Z,2.65
2022-08-05T00:26:32.373Z,2.10
2022-08-05T00:29:00.331Z,2.28
2022-08-05T00:31:53.255Z,2.40
2022-08-05T00:34:54.079Z,2.72
2022-08-05T00:37:10.848Z,2.72
2022-08-05T00:39:44.245Z,2.40
2022-08-05T00:42:32.538Z,2.72
2022-08-05T00:45:00.997Z,2.38
2022-08-05T00:47:53.300Z,2.35
2022-08-05T00:50:18.701Z,2.83
2022-08-05T00:52:49.262Z,2.33
2022-08-05T00:55:17.315Z,2.40
2022-08-05T00:57:57.933Z,2.88
2022-08-05T01:00:28.141Z,2.58
2022-08-05T01:02:56.649Z,2.30
2022-08-05T01:05:27.421Z,2.13
2022-08-05T01:08:39.861Z,2.20
2022-08-05T01:10:52.526Z,2.35
2022-08-05T01:13:27.358Z,2.85
2022-08-05T01:16:21.055Z,2.53
2022-08-05T01:18:59.127Z,2.22
2022-08-05T01:21:57.455Z,1.85
2022-08-05T01:24:44.126Z,1.83
2022-08-05T01:27:26.755Z,1.67
2022-08-05T01:30:03.418Z,2.35
2022-08-05T01:32:34.794Z,2.20
2022-08-05T01:35:10.503Z,2.05
2022-08-05T01:37:45.283Z,1.77
2022-08-05T01:40:17.964Z,2.13
2022-08-05T01:42:48.154Z,1.87
2022-08-05T01:45:19.212Z,1.15
2022-08-05T01:47:54.567Z,2.03
2022-08-05T01:50:30.085Z,2.60
2022-08-05T01:53:02.571Z,1.85
2022-08-05T01:55:36.225Z,2.08
2022-08-05T01:58:29.710Z,1.80
2022-08-05T02:00:58.756Z,2.00
2022-08-05T02:03:33.988Z,2.20
2022-08-05T02:06:33.586Z,2.17
2022-08-05T02:08:57.829Z,1.70
2022-08-05T02:11:33.515Z,2.15
2022-08-05T02:14:12.303Z,1.70
2022-08-05T02:16:52.836Z,2.13
2022-08-05T02:19:34.575Z,2.20
2022-08-05T02:22:10.111Z,1.90
2022-08-05T02:25:00.207Z,1.85
2022-08-05T02:27:59.519Z,1.85
2022-08-05T02:30:18.905Z,2.22
2022-08-05T02:32:52.699Z,1.80
2022-08-05T02:35:27.922Z,2.08
2022-08-05T02:38:00.173Z,2.17
2022-08-05T02:40:32.658Z,1.73
2022-08-05T02:43:03.182Z,2.15
2022-08-05T02:45:52.382Z,2.08
2022-08-05T02:48:28.991Z,2.03
2022-08-05T02:51:01.026Z,2.28
2022-08-05T02:53:39.267Z,1.42
2022-08-05T02:56:23.616Z,2.03
2022-08-05T02:58:53.320Z,2.15
2022-08-05T03:01:25.486Z,2.03
2022-08-05T03:04:03.304Z,1.98
2022-08-05T03:06:56.884Z,1.88
2022-08-05T03:09:37.669Z,2.13
2022-08-05T03:12:08.133Z,2.40
2022-08-05T03:14:40.881Z,2.30
2022-08-05T03:17:14.252Z,2.22
2022-08-05T03:19:45.597Z,2.70
2022-08-05T03:22:16.802Z,2.50
2022-08-05T03:24:50.791Z,2.45
2022-08-05T03:27:20.443Z,1.90
2022-08-05T03:30:08.388Z,2.67
2022-08-05T03:32:40.519Z,2.28
2022-08-05T03:35:10.901Z,2.67
2022-08-05T03:37:46.538Z,2.70
2022-08-05T03:40:24.458Z,2.33
2022-08-05T03:43:15.789Z,2.50
2022-08-05T03:45:57.371Z,1.50
2022-08-05T03:48:26.699Z,1.83
2022-08-05T03:51:06.921Z,1.90
2022-08-05T03:55:50.695Z,1.90
2022-08-05T03:56:46.485Z,1.60
2022-08-05T03:59:20.324Z,1.75
2022-08-05T04:01:52.154Z,1.80
2022-08-05T04:04:22.712Z,2.20
2022-08-05T04:06:56.822Z,2.10
2022-08-05T04:09:37.961Z,1.80
2022-08-05T04:12:23.695Z,2.33
2022-08-05T04:14:53.642Z,1.95
2022-08-05T04:17:55.714Z,1.92
2022-08-05T04:20:24.271Z,1.80
2022-08-05T04:22:53.705Z,1.75
2022-08-05T04:25:38.533Z,1.83
2022-08-05T04:28:13.569Z,2.30
2022-08-05T04:30:44.159Z,1.90
2022-08-05T04:33:13.776Z,2.00
2022-08-05T04:36:16.050Z,1.90
2022-08-05T04:38:39.804Z,1.02
2022-08-05T04:41:09.456Z,1.67
2022-08-05T04:43:40.681Z,2.13
2022-08-05T04:46:27.895Z,1.60
2022-08-05T04:48:58.712Z,1.92
2022-08-05T04:51:30.321Z,2.03
2022-08-05T04:54:02.287Z,1.48
2022-08-05T04:56:34.876Z,2.17
2022-08-05T05:02:41.095Z,2.22
2022-08-05T05:05:16.826Z,2.25
2022-08-05T05:08:00.952Z,2.05
2022-08-05T05:10:33.270Z,1.60
2022-08-05T05:13:03.983Z,2.22
2022-08-05T05:15:56.522Z,2.22
2022-08-05T05:18:28.409Z,2.38
2022-08-05T05:20:59.988Z,2.03
2022-08-05T05:24:02.493Z,2.40
2022-08-05T05:26:18.365Z,1.90
2022-08-05T05:28:46.725Z,2.10
2022-08-05T05:31:14.852Z,2.00
2022-08-05T05:33:59.393Z,2.20
2022-08-05T05:36:30.535Z,1.73
2022-08-05T05:38:59.665Z,1.83
2022-08-05T05:41:40.405Z,2.17
2022-08-05T05:44:35.931Z,1.80
2022-08-05T05:47:04.641Z,2.05
2022-08-05T05:49:56.555Z,2.20
2022-08-05T05:52:29.971Z,2.25
2022-08-05T05:55:07.478Z,1.90
2022-08-05T05:57:52.379Z,1.70
2022-08-05T06:00:27.721Z,1.50
2022-08-05T06:03:39.871Z,2.17
2022-08-05T06:05:57.162Z,1.38
2022-08-05T06:08:31.511Z,1.60
2022-08-05T06:11:04.233Z,1.80
2022-08-05T06:13:40.937Z,1.40
2022-08-05T06:16:28.555Z,2.78
2022-08-05T06:19:02.105Z,2.08
2022-08-05T06:21:38.684Z,1.35
2022-08-05T06:24:14.813Z,1.17
2022-08-05T06:26:52.038Z,1.88
2022-08-05T06:29:46.847Z,1.33
2022-08-05T06:32:25.585Z,1.60
2022-08-05T06:37:58.144Z,1.60
2022-08-05T06:40:32.294Z,1.50
2022-08-05T06:43:00.813Z,1.38
2022-08-05T06:45:44.594Z,1.50
2022-08-05T06:48:56.186Z,1.10
2022-08-05T06:51:09.338Z,1.38
2022-08-05T06:53:39.358Z,1.30
2022-08-05T06:56:25.642Z,1.45
2022-08-05T06:58:55.352Z,1.15
2022-08-05T07:01:27.630Z,1.60
2022-08-05T07:04:01.369Z,1.05
2022-08-05T07:06:32.031Z,1.92
2022-08-05T07:09:03.725Z,0.93
2022-08-05T07:11:36.829Z,1.98
2022-08-05T07:14:29.591Z,1.45
2022-08-05T07:17:58.676Z,1.33
2022-08-05T07:22:42.505Z,2.65
2022-08-05T07:25:54.332Z,1.10
2022-08-05T07:28:05.745Z,1.70
2022-08-05T07:30:39.179Z,1.20
2022-08-05T07:33:15.921Z,1.02
2022-08-05T07:36:02.812Z,1.00
2022-08-05T07:38:43.358Z,1.27
2022-08-05T07:42:08.541Z,1.38
2022-08-05T07:44:02.736Z,1.75
2022-08-05T07:46:33.679Z,1.85
2022-08-05T07:49:06.138Z,2.10
2022-08-05T07:51:40.671Z,2.20
2022-08-05T07:54:16.725Z,1.10
2022-08-05T07:57:13.299Z,0.82
2022-08-05T07:59:39.973Z,1.30
2022-08-05T08:02:15.789Z,0.93
2022-08-05T08:04:48.671Z,1.25
2022-08-05T08:07:18.235Z,1.05
2022-08-05T08:09:52.386Z,1.40
2022-08-05T08:12:37.419Z,1.10
2022-08-05T08:15:15.233Z,1.30
2022-08-05T08:17:46.048Z,0.90
2022-08-05T08:20:43.037Z,1.70
2022-08-05T08:24:00.457Z,0.98
2022-08-05T08:26:00.417Z,1.23
2022-08-05T08:28:36.654Z,1.27
2022-08-05T08:31:05.545Z,1.17
2022-08-05T08:33:36.060Z,0.50
2022-08-05T08:38:57.385Z,1.00
2022-08-05T08:41:52.145Z,0.90
2022-08-05T08:45:16.942Z,0.90
2022-08-05T08:47:48.137Z,0.85
2022-08-05T08:50:08.873Z,0.90
2022-08-05T08:52:52.982Z,0.70
2022-08-05T08:56:02.137Z,1.05
2022-08-05T08:58:12.863Z,0.80
2022-08-05T09:00:44.388Z,0.95
2022-08-05T09:03:15.974Z,0.73
2022-08-05T09:06:08.446Z,1.05
2022-08-05T09:08:52.622Z,0.93
2022-08-05T09:11:51.301Z,0.63
2022-08-05T09:14:57.715Z,0.73
2022-08-05T09:17:16.168Z,0.60
2022-08-05T09:20:05.344Z,0.65
2022-08-05T09:23:09.202Z,0.70
2022-08-05T09:26:02.755Z,0.70
2022-08-05T09:28:33.772Z,0.32
2022-08-05T09:31:23.394Z,0.77
2022-08-05T09:33:59.635Z,0.50
2022-08-05T09:36:45.776Z,0.85
2022-08-05T09:39:44.917Z,0.45
2022-08-05T09:42:24.016Z,0.88
2022-08-05T09:45:03.165Z,0.82
2022-08-05T09:47:54.949Z,0.63
2022-08-05T09:50:37.730Z,0.80
2022-08-05T09:53:23.033Z,0.65
2022-08-05T09:56:03.643Z,0.80
2022-08-05T09:58:34.864Z,0.73
2022-08-05T10:01:14.822Z,0.93
2022-08-05T10:03:59.215Z,0.52
2022-08-05T10:06:28.672Z,0.75
2022-08-05T10:08:57.489Z,0.40
2022-08-05T10:11:35.075Z,0.52
2022-08-05T10:14:21.994Z,0.43
2022-08-05T10:16:52.808Z,0.70
2022-08-05T10:19:23.540Z,0.70
2022-08-05T10:22:00.199Z,0.60
2022-08-05T10:24:29.321Z,0.20
2022-08-05T10:27:01.453Z,0.60
2022-08-05T10:30:41.912Z,0.43
2022-08-05T10:32:53.047Z,0.50
2022-08-05T10:35:13.333Z,0.20
2022-08-05T10:37:44.970Z,0.30
2022-08-05T10:40:27.833Z,0.40
2022-08-05T10:43:13.319Z,0.30
2022-08-05T10:45:44.820Z,0.40
2022-08-05T10:48:52.311Z,0.28
2022-08-05T10:51:28.979Z,0.45
2022-08-05T10:54:00.911Z,0.22
2022-08-05T10:56:49.322Z,0.40
2022-08-05T11:00:03.501Z,0.40
2022-08-05T11:02:14.529Z,0.40
2022-08-05T11:08:04.788Z,0.40
2022-08-05T11:10:49.956Z,0.25
2022-08-05T11:13:58.056Z,0.38
2022-08-05T11:16:33.710Z,0.45
2022-08-05T11:20:10.642Z,0.30
2022-08-05T11:22:42.588Z,0.20
2022-08-05T11:26:04.418Z,0.65
2022-08-05T11:28:46.572Z,0.63
2022-08-05T11:31:57.801Z,0.75
2022-08-05T11:34:47.598Z,0.80
2022-08-05T11:38:30.971Z,0.80
2022-08-05T11:41:34.246Z,0.82
2022-08-05T11:44:05.191Z,0.68
2022-08-05T11:46:37.850Z,0.70
2022-08-05T11:49:27.963Z,0.45
2022-08-05T11:51:59.184Z,0.50
2022-08-05T11:54:33.369Z,0.73
2022-08-05T11:57:08.661Z,0.80
2022-08-05T11:59:57.728Z,0.60
2022-08-05T12:02:33.699Z,0.70
2022-08-05T12:05:18.047Z,1.30
2022-08-05T12:08:08.484Z,0.50
2022-08-05T12:10:45.339Z,1.15
2022-08-05T12:13:48.998Z,0.73
2022-08-05T12:16:16.441Z,0.60
2022-08-05T12:18:49.061Z,0.52
2022-08-05T12:21:26.943Z,0.50
2022-08-05T12:24:06.899Z,0.60
2022-08-05T12:26:38.874Z,0.60
2022-08-05T12:29:11.872Z,0.60
2022-08-05T12:31:53.277Z,0.32
2022-08-05T12:34:28.893Z,0.60
2022-08-05T12:37:03.350Z,0.40
2022-08-05T12:39:38.598Z,1.02
2022-08-05T12:42:14.665Z,0.43
2022-08-05T12:44:47.570Z,0.50
2022-08-05T12:47:30.643Z,0.70
2022-08-05T12:50:05.495Z,0.60
2022-08-05T12:52:39.014Z,0.40
2022-08-05T12:55:23.915Z,0.82
2022-08-05T12:58:49.664Z,0.88
2022-08-05T13:02:00.488Z,0.43
2022-08-05T13:03:43.059Z,0.52
2022-08-05T13:06:18.389Z,0.80
2022-08-05T13:08:51.583Z,0.70
2022-08-05T13:11:25.625Z,0.60
2022-08-05T13:14:20.397Z,1.35
2022-08-05T13:16:56.894Z,0.60
2022-08-05T13:19:40.301Z,0.60
2022-08-05T13:22:28.475Z,0.50
2022-08-05T13:25:05.795Z,0.60
2022-08-05T13:27:41.694Z,1.02
2022-08-05T13:30:32.680Z,0.60
2022-08-05T13:35:47.544Z,0.73
2022-08-05T13:38:30.753Z,1.10
2022-08-05T13:41:05.952Z,0.55
2022-08-05T13:43:45.377Z,0.93
2022-08-05T13:46:50.930Z,0.30
2022-08-05T13:49:15.688Z,0.20
2022-08-05T13:51:46.393Z,1.10
2022-08-05T13:54:20.956Z,0.70
2022-08-05T13:56:55.721Z,0.52
2022-08-05T13:59:30.841Z,0.40
2022-08-05T14:02:02.103Z,0.30
2022-08-05T14:04:51.466Z,1.15
2022-08-05T14:07:26.322Z,0.95
2022-08-05T14:10:18.507Z,1.98
2022-08-05T14:12:54.574Z,1.15
2022-08-05T14:16:05.437Z,1.73
2022-08-05T14:18:18.371Z,1.25
2022-08-05T14:20:52.946Z,1.42
2022-08-05T14:23:26.942Z,1.10
2022-08-05T14:25:59.557Z,1.00
2022-08-05T14:28:29.619Z,1.83
2022-08-05T14:31:00.413Z,1.10
2022-08-05T14:33:32.541Z,0.73
2022-08-05T14:36:21.598Z,1.35
2022-08-05T14:38:53.619Z,1.13
2022-08-05T14:41:23.601Z,0.82
2022-08-05T14:44:00.310Z,0.70
2022-08-05T14:46:36.549Z,0.82
2022-08-05T14:49:08.156Z,0.47
2022-08-05T14:51:42.802Z,0.50
2022-08-05T14:54:28.159Z,0.47
2022-08-05T14:57:05.182Z,0.40
2022-08-05T14:59:39.618Z,0.82
2022-08-05T15:02:15.920Z,0.73
2022-08-05T15:04:56.475Z,0.85
2022-08-05T15:08:06.860Z,0.52
2022-08-05T15:10:17.561Z,0.52
2022-08-05T15:13:04.264Z,0.80
2022-08-05T15:15:54.018Z,0.73
2022-08-05T15:18:27.680Z,0.60
2022-08-05T15:20:59.029Z,0.70
2022-08-05T15:23:38.050Z,0.50
2022-08-05T15:26:09.799Z,0.77
2022-08-05T15:28:42.962Z,0.80
2022-08-05T15:31:14.813Z,0.30
2022-08-05T15:34:05.291Z,0.75
2022-08-05T15:36:36.127Z,0.40
2022-08-05T15:41:02.881Z,1.15
2022-08-05T15:42:02.468Z,0.90
2022-08-05T15:44:55.603Z,0.52
2022-08-05T15:47:26.990Z,0.50
2022-08-05T15:49:59.464Z,0.65
2022-08-05T15:52:53.715Z,0.45
2022-08-05T15:55:25.139Z,0.93
2022-08-05T15:58:16.394Z,0.95
2022-08-05T16:01:03.315Z,0.73
2022-08-05T16:03:41.151Z,0.55
2022-08-05T16:06:13.160Z,0.70
2022-08-05T16:08:51.058Z,0.65
2022-08-05T16:11:42.329Z,0.75
2022-08-05T16:14:17.449Z,1.05
2022-08-05T16:16:50.587Z,0.45
2022-08-05T16:20:03.671Z,1.40
2022-08-05T16:22:17.106Z,0.70
2022-08-05T16:24:51.804Z,1.13
2022-08-05T16:27:32.272Z,0.57
2022-08-05T16:30:25.534Z,0.60
2022-08-05T16:32:58.216Z,0.73
2022-08-05T16:35:33.546Z,0.80
2022-08-05T16:38:16.052Z,0.60
2022-08-05T16:41:00.186Z,0.63
2022-08-05T16:43:32.759Z,0.55
2022-08-05T16:46:23.752Z,0.57
2022-08-05T16:49:09.163Z,0.73
2022-08-05T16:51:42.622Z,0.65
2022-08-05T16:54:28.923Z,0.47
2022-08-05T16:57:00.143Z,0.50
2022-08-05T16:59:30.792Z,0.80
2022-08-05T17:02:01.038Z,0.52
2022-08-05T17:04:32.444Z,0.82
2022-08-05T17:07:11.477Z,0.60
2022-08-05T17:09:57.527Z,0.50
2022-08-05T17:12:51.916Z,0.50
2022-08-05T17:15:19.903Z,0.40
2022-08-05T17:17:55.210Z,0.40
2022-08-05T17:20:26.636Z,0.60
2022-08-05T17:22:59.034Z,0.68
2022-08-05T17:25:39.877Z,0.50
2022-08-05T17:28:10.984Z,0.60
2022-08-05T17:30:52.059Z,0.90
2022-08-05T17:33:25.351Z,0.52
2022-08-05T17:36:07.553Z,0.50
2022-08-05T17:38:41.452Z,0.55
2022-08-05T17:42:16.502Z,0.40
2022-08-05T17:44:03.526Z,0.15
2022-08-05T17:46:32.006Z,0.40
2022-08-05T17:49:00.127Z,0.60
2022-08-05T17:51:28.680Z,0.47
2022-08-05T17:54:09.141Z,0.60
2022-08-05T17:56:43.454Z,0.30
2022-08-05T17:59:20.985Z,0.40
2022-08-05T18:01:55.459Z,0.20
2022-08-05T18:04:30.096Z,0.40
2022-08-05T18:07:04.237Z,0.40
2022-08-05T18:09:59.072Z,0.90
2022-08-05T18:12:27.308Z,0.65
2022-08-05T18:15:00.566Z,0.40
2022-08-05T18:18:00.750Z,1.25
2022-08-05T18:20:29.555Z,0.63
2022-08-05T18:23:12.059Z,0.65
2022-08-05T18:25:45.049Z,0.30
2022-08-05T18:28:21.829Z,0.38
2022-08-05T18:30:53.516Z,0.30
2022-08-05T18:33:26.352Z,0.22
2022-08-05T18:36:17.202Z,0.20
2022-08-05T18:38:51.961Z,0.30
2022-08-05T18:41:55.605Z,0.30
2022-08-05T18:44:33.238Z,0.20
2022-08-05T18:47:05.494Z,0.50
2022-08-05T18:49:58.048Z,0.40
2022-08-05T18:52:38.629Z,0.50
2022-08-05T18:55:10.564Z,0.47
2022-08-05T18:57:43.571Z,0.30
2022-08-05T19:00:28.981Z,0.88
2022-08-05T19:03:04.157Z,0.70
2022-08-05T19:06:11.915Z,0.50
2022-08-05T19:08:30.160Z,0.40
2022-08-05T19:11:05.263Z,0.40
2022-08-05T19:13:41.298Z,0.55
2022-08-05T19:16:28.537Z,0.40
2022-08-05T19:19:01.531Z,1.00
2022-08-05T19:21:34.629Z,0.50
2022-08-05T19:24:08.997Z,1.15
2022-08-05T19:26:54.610Z,0.80
2022-08-05T19:29:35.981Z,0.50
2022-08-05T19:32:11.516Z,0.40
2022-08-05T19:38:26.351Z,0.80
2022-08-05T19:40:55.811Z,0.70
2022-08-05T19:44:04.208Z,0.60
2022-08-05T19:46:27.342Z,0.70
2022-08-05T19:49:04.215Z,0.95
2022-08-05T19:52:08.606Z,0.80
2022-08-05T19:54:30.855Z,0.70
2022-08-05T19:57:06.230Z,0.63
2022-08-05T19:59:55.108Z,0.35
2022-08-05T20:02:32.801Z,0.93
2022-08-05T20:05:04.965Z,0.93
2022-08-05T20:07:46.956Z,0.73
2022-08-05T20:10:22.397Z,0.50
2022-08-05T20:12:56.890Z,0.95
2022-08-05T20:15:52.598Z,1.10
2022-08-05T20:18:33.955Z,1.20
2022-08-05T20:21:09.623Z,1.35
2022-08-05T20:23:50.857Z,1.42
2022-08-05T20:26:27.623Z,1.00
2022-08-05T20:29:01.190Z,0.70
2022-08-05T20:31:43.111Z,0.60
2022-08-05T20:34:23.658Z,1.00
2022-08-05T20:36:56.758Z,0.85
2022-08-05T20:39:26.404Z,1.05
2022-08-05T20:42:07.049Z,1.20
2022-08-05T20:44:39.929Z,1.00
2022-08-05T20:47:11.793Z,0.63
2022-08-05T20:50:11.443Z,0.75
2022-08-05T20:52:47.662Z,1.33
2022-08-05T20:55:58.959Z,0.85
2022-08-05T20:58:18.304Z,0.98
2022-08-05T21:01:04.524Z,1.10
2022-08-05T21:03:39.311Z,0.63
2022-08-05T21:06:27.957Z,0.80
2022-08-05T21:09:00.425Z,0.90
2022-08-05T21:12:07.759Z,0.95
2022-08-05T21:14:26.661Z,1.05
2022-08-05T21:17:00.593Z,1.13
2022-08-05T21:19:46.939Z,1.25
2022-08-05T21:22:23.156Z,0.88
2022-08-05T21:24:57.663Z,0.82
2022-08-05T21:27:38.491Z,1.10
2022-08-05T21:30:11.328Z,1.10
2022-08-05T21:32:45.735Z,1.17
2022-08-05T21:35:18.110Z,1.08
2022-08-05T21:38:01.085Z,1.58
2022-08-05T21:40:54.316Z,1.10
2022-08-05T21:43:43.502Z,0.90
2022-08-05T21:46:35.860Z,1.00
2022-08-05T21:49:07.366Z,0.60
2022-08-05T21:52:21.759Z,1.10
2022-08-05T21:54:31.102Z,1.30
2022-08-05T21:57:29.614Z,1.02
2022-08-05T22:00:05.588Z,1.20
2022-08-05T22:02:45.790Z,1.00
2022-08-05T22:05:17.534Z,1.20
2022-08-05T22:07:58.924Z,1.55
2022-08-05T22:10:32.228Z,1.02
2022-08-05T22:14:32.725Z,0.98
2022-08-05T22:16:32.237Z,1.00
2022-08-05T22:19:00.404Z,1.20
2022-08-05T22:21:33.679Z,1.55
2022-08-05T22:24:40.395Z,1.17
2022-08-05T22:28:08.942Z,2.58
2022-08-05T22:30:24.603Z,2.15
2022-08-05T22:33:02.305Z,2.53
2022-08-05T22:35:38.647Z,3.20
2022-08-05T22:38:19.102Z,2.10
2022-08-05T22:40:54.757Z,1.25
2022-08-05T22:43:36.998Z,1.10
2022-08-05T22:48:54.069Z,1.15
2022-08-05T22:52:03.120Z,1.00
2022-08-05T22:54:12.683Z,1.60
2022-08-05T22:56:42.425Z,1.08
2022-08-05T22:59:45.082Z,0.98
2022-08-05T23:02:07.792Z,1.52
2022-08-05T23:04:37.583Z,1.17
2022-08-05T23:07:12.657Z,1.17
2022-08-05T23:09:58.256Z,1.08
2022-08-05T23:12:32.974Z,1.25
2022-08-05T23:15:08.854Z,1.55
2022-08-05T23:18:01.025Z,1.30
2022-08-05T23:20:37.788Z,0.93
2022-08-05T23:23:21.167Z,1.30
2022-08-05T23:25:56.518Z,1.33
2022-08-05T23:28:29.456Z,1.48
2022-08-05T23:31:16.914Z,1.15
2022-08-05T23:34:05.935Z,1.20
2022-08-05T23:36:44.845Z,1.23
2022-08-05T23:39:32.032Z,1.40
2022-08-05T23:42:12.094Z,1.27
2022-08-05T23:45:33.000Z,0.80
2022-08-05T23:48:29.274Z,0.90
2022-08-05T23:51:03.021Z,1.00
2022-08-05T23:53:47.021Z,1.00
2022-08-05T23:56:27.187Z,0.65
2022-08-05T23:59:00.873Z,1.05
